createdAt,value
2023-05-01T00:02:34.436Z,92.35
2023-05-01T00:07:42.733Z,91.74
2023-05-01T00:12:48.204Z,93.95
2023-05-01T00:17:53.782Z,91.40
2023-05-01T00:23:02.659Z,90.12
2023-05-01T00:28:08.480Z,90.35
2023-05-01T00:33:13.633Z,93.16
2023-05-01T00:38:24.442Z,94.27
2023-05-01T00:43:29.898Z,95.82
2023-05-01T00:48:35.103Z,96.25
2023-05-01T00:53:46.260Z,95.07
2023-05-01T00:58:55.347Z,96.26
2023-05-01T01:04:01.650Z,96.71
2023-05-01T01:09:26.251Z,95.89
2023-05-01T01:14:36.931Z,97.36
2023-05-01T01:20:17.778Z,96.45
2023-05-01T01:26:01.385Z,95.60
2023-05-01T01:31:23.651Z,95.46
2023-05-01T01:36:40.352Z,95.95
2023-05-01T01:41:53.170Z,96.63
2023-05-01T01:47:02.259Z,97.81
2023-05-01T01:52:14.410Z,98.90
2023-05-01T01:57:21.792Z,99.42
2023-05-01T02:02:29.576Z,99.71
2023-05-01T02:07:38.806Z,99.22
2023-05-01T02:12:46.295Z,98.33
2023-05-01T02:17:54.332Z,100.00
2023-05-01T02:23:03.375Z,100.00
2023-05-01T02:28:16.329Z,100.00
2023-05-01T02:33:21.656Z,100.00
2023-05-01T02:38:29.822Z,100.00
2023-05-01T02:43:36.949Z,99.84
2023-05-01T02:48:45.280Z,98.42
2023-05-01T02:53:53.767Z,98.58
2023-05-01T02:59:00.907Z,99.03
2023-05-01T03:04:06.059Z,99.06
2023-05-01T03:09:14.453Z,97.48
2023-05-01T03:14:19.928Z,100.00
2023-05-01T03:19:25.661Z,100.00
2023-05-01T03:24:33.859Z,100.00
2023-05-01T03:29:39.870Z,100.00
2023-05-01T03:34:45.059Z,100.00
2023-05-01T03:39:56.608Z,100.00
2023-05-01T03:45:21.395Z,100.00
2023-05-01T03:50:26.822Z,100.00
2023-05-01T03:55:37.285Z,98.72
2023-05-01T04:00:43.238Z,100.00
2023-05-01T04:05:49.238Z,100.00
2023-05-01T04:10:59.465Z,100.00
2023-05-01T04:16:05.105Z,97.31
2023-05-01T04:21:11.098Z,99.92
2023-05-01T04:26:22.302Z,97.04
2023-05-01T04:31:28.109Z,88.26
2023-05-01T04:36:35.591Z,87.17
2023-05-01T04:41:44.057Z,81.82
2023-05-01T04:46:49.741Z,85.30
2023-05-01T04:51:57.171Z,84.51
2023-05-01T04:57:09.003Z,82.64
2023-05-01T05:02:14.224Z,79.04
2023-05-01T05:07:21.861Z,78.37
2023-05-01T05:12:52.679Z,76.72
2023-05-01T05:17:58.112Z,76.58
2023-05-01T05:23:04.882Z,77.59
2023-05-01T05:28:12.785Z,74.64
2023-05-01T05:33:18.550Z,79.85
2023-05-01T05:38:25.857Z,81.15
2023-05-01T05:43:37.545Z,78.86
2023-05-01T05:48:46.240Z,73.92
2023-05-01T05:53:52.578Z,71.47
2023-05-01T05:59:03.760Z,66.98
2023-05-01T06:04:09.760Z,64.52
2023-05-01T06:09:19.198Z,64.89
2023-05-01T06:14:26.974Z,65.16
2023-05-01T06:19:43.187Z,67.12
2023-05-01T06:24:49.774Z,67.84
2023-05-01T06:30:01.678Z,62.30
2023-05-01T06:35:09.551Z,62.78
2023-05-01T06:40:16.982Z,61.81
2023-05-01T06:45:27.823Z,60.26
2023-05-01T06:50:33.609Z,59.08
2023-05-01T06:55:40.127Z,61.44
2023-05-01T07:00:47.825Z,59.01
2023-05-01T07:05:54.138Z,58.31
2023-05-01T07:11:00.584Z,57.51
2023-05-01T07:16:09.496Z,57.40
2023-05-01T07:21:14.758Z,57.45
2023-05-01T07:26:20.238Z,57.30
2023-05-01T07:31:28.255Z,58.79
2023-05-01T07:36:36.829Z,57.00
2023-05-01T07:41:41.832Z,57.18
2023-05-01T07:46:49.743Z,56.60
2023-05-01T07:51:58.368Z,55.86
2023-05-01T07:57:05.778Z,57.41
2023-05-01T08:02:18.978Z,57.44
2023-05-01T08:07:24.964Z,56.83
2023-05-01T08:12:34.214Z,56.37
2023-05-01T08:17:42.286Z,54.71
2023-05-01T08:22:50.087Z,54.49
2023-05-01T08:27:55.412Z,55.00
2023-05-01T08:33:03.714Z,54.22
2023-05-01T08:38:08.874Z,54.16
2023-05-01T08:43:14.341Z,54.00
2023-05-01T08:48:23.908Z,53.36
2023-05-01T08:53:32.040Z,53.98
2023-05-01T08:58:38.863Z,53.43
2023-05-01T09:03:47.432Z,52.05
2023-05-01T09:08:52.636Z,53.83
2023-05-01T09:14:00.578Z,52.32
2023-05-01T09:19:08.493Z,52.25
2023-05-01T09:24:13.858Z,51.52
2023-05-01T09:29:40.848Z,51.99
2023-05-01T09:34:50.342Z,53.33
2023-05-01T09:40:06.120Z,53.93
2023-05-01T09:45:17.185Z,51.91
2023-05-01T09:50:38.785Z,50.82
2023-05-01T09:55:43.869Z,52.16
2023-05-01T10:00:52.972Z,52.46
2023-05-01T10:06:02.137Z,54.56
2023-05-01T10:11:08.475Z,54.75
2023-05-01T10:16:32.007Z,53.71
2023-05-01T10:21:39.893Z,54.97
2023-05-01T10:26:46.252Z,54.38
2023-05-01T10:31:52.260Z,53.45
2023-05-01T10:37:06.395Z,53.01
2023-05-01T10:42:14.582Z,54.38
2023-05-01T10:47:50.594Z,51.98
2023-05-01T10:53:22.619Z,53.09
2023-05-01T10:59:04.943Z,51.67
2023-05-01T11:04:30.770Z,51.53
2023-05-01T11:09:44.480Z,50.85
2023-05-01T11:15:05.984Z,51.12
2023-05-01T11:20:12.758Z,50.19
2023-05-01T11:25:25.063Z,52.83
2023-05-01T11:30:39.836Z,52.26
2023-05-01T11:35:47.680Z,51.25
2023-05-01T11:41:04.051Z,50.06
2023-05-01T11:46:09.611Z,50.40
2023-05-01T11:51:16.253Z,51.12
2023-05-01T11:56:27.552Z,49.00
2023-05-01T12:01:41.154Z,46.73
2023-05-01T12:06:49.157Z,48.40
2023-05-01T12:11:58.162Z,48.44
2023-05-01T12:17:04.488Z,46.13
2023-05-01T12:22:09.882Z,47.08
2023-05-01T12:27:21.262Z,46.73
2023-05-01T12:32:35.716Z,45.89
2023-05-01T12:37:41.724Z,46.02
2023-05-01T12:42:59.124Z,45.95
2023-05-01T12:48:04.308Z,45.26
2023-05-01T12:53:09.966Z,46.03
2023-05-01T12:58:18.506Z,46.44
2023-05-01T13:03:28.452Z,44.89
2023-05-01T13:08:35.159Z,46.71
2023-05-01T13:13:43.641Z,45.57
2023-05-01T13:18:50.825Z,46.20
2023-05-01T13:23:59.134Z,47.03
2023-05-01T13:29:08.346Z,46.77
2023-05-01T13:34:13.639Z,47.03
2023-05-01T13:39:23.083Z,46.27
2023-05-01T13:44:33.063Z,45.25
2023-05-01T13:49:40.653Z,45.23
2023-05-01T13:54:47.257Z,47.19
2023-05-01T13:59:55.469Z,46.44
2023-05-01T14:05:01.146Z,46.45
2023-05-01T14:10:07.416Z,45.70
2023-05-01T14:15:17.357Z,46.01
2023-05-01T14:20:22.942Z,46.21
2023-05-01T14:25:30.163Z,46.68
2023-05-01T14:30:40.170Z,46.28
2023-05-01T14:35:52.878Z,46.15
2023-05-01T14:41:01.219Z,46.37
2023-05-01T14:46:09.632Z,46.56
2023-05-01T14:51:15.699Z,48.10
2023-05-01T14:56:21.153Z,47.47
2023-05-01T15:01:31.633Z,48.41
2023-05-01T15:06:36.830Z,48.30
2023-05-01T15:11:42.103Z,49.08
2023-05-01T15:16:49.862Z,49.44
2023-05-01T15:21:55.090Z,49.03
2023-05-01T15:27:00.199Z,50.11
2023-05-01T15:32:12.529Z,50.04
2023-05-01T15:37:20.776Z,50.69
2023-05-01T15:42:25.845Z,51.10
2023-05-01T15:47:34.743Z,51.51
2023-05-01T15:52:40.127Z,51.81
2023-05-01T15:57:49.976Z,52.33
2023-05-01T16:02:57.751Z,52.36
2023-05-01T16:08:05.471Z,52.10
2023-05-01T16:13:10.595Z,52.56
2023-05-01T16:18:23.302Z,54.47
2023-05-01T16:23:29.162Z,55.02
2023-05-01T16:28:36.791Z,55.87
2023-05-01T16:33:44.553Z,56.14
2023-05-01T16:38:50.220Z,56.43
2023-05-01T16:43:55.487Z,56.76
2023-05-01T16:49:03.457Z,56.92
2023-05-01T16:54:08.469Z,56.84
2023-05-01T16:59:15.876Z,56.64
2023-05-01T17:04:23.682Z,56.29
2023-05-01T17:09:30.397Z,55.99
2023-05-01T17:14:37.804Z,56.63
2023-05-01T17:19:48.541Z,56.66
2023-05-01T17:24:53.593Z,56.54
2023-05-01T17:30:00.359Z,57.06
2023-05-01T17:35:15.856Z,57.59
2023-05-01T17:40:21.516Z,59.25
2023-05-01T17:45:26.776Z,60.91
2023-05-01T17:50:35.796Z,60.34
2023-05-01T17:55:43.057Z,59.59
2023-05-01T18:00:48.607Z,59.74
2023-05-01T18:05:57.081Z,61.72
2023-05-01T18:11:02.315Z,62.01
2023-05-01T18:16:09.110Z,62.42
2023-05-01T18:21:17.129Z,63.07
2023-05-01T18:26:22.747Z,63.79
2023-05-01T18:31:28.016Z,65.07
2023-05-01T18:36:35.845Z,66.60
2023-05-01T18:41:45.742Z,67.13
2023-05-01T18:46:51.146Z,67.91
2023-05-01T18:51:59.188Z,69.01
2023-05-01T18:57:04.346Z,72.29
2023-05-01T19:02:09.819Z,77.18
2023-05-01T19:07:18.330Z,76.13
2023-05-01T19:12:23.932Z,76.91
2023-05-01T19:17:29.251Z,76.96
2023-05-01T19:22:39.279Z,77.90
2023-05-01T19:27:45.525Z,79.20
2023-05-01T19:32:52.741Z,81.29
2023-05-01T19:38:02.078Z,80.18
2023-05-01T19:43:07.547Z,81.39
2023-05-01T19:48:13.012Z,79.71
2023-05-01T19:53:21.258Z,82.65
2023-05-01T19:58:27.008Z,84.19
2023-05-01T20:03:35.783Z,85.08
2023-05-01T20:08:44.611Z,83.75
2023-05-01T20:13:49.748Z,84.65
2023-05-01T20:18:55.005Z,84.64
2023-05-01T20:24:03.179Z,83.86
2023-05-01T20:29:09.587Z,86.08
2023-05-01T20:34:14.727Z,85.61
2023-05-01T20:39:23.046Z,88.77
2023-05-01T20:44:30.384Z,88.43
2023-05-01T20:49:36.005Z,80.45
2023-05-01T20:54:45.034Z,74.39
2023-05-01T20:59:51.162Z,78.90
2023-05-01T21:04:57.773Z,81.89
2023-05-01T21:10:10.796Z,81.10
2023-05-01T21:15:15.952Z,84.97
2023-05-01T21:20:32.277Z,84.60
2023-05-01T21:25:42.091Z,87.55
2023-05-01T21:30:47.452Z,86.50
2023-05-01T21:35:52.690Z,86.47
2023-05-01T21:41:00.817Z,86.67
2023-05-01T21:46:06.221Z,87.43
2023-05-01T21:51:11.675Z,87.73
2023-05-01T21:56:21.289Z,88.93
2023-05-01T22:01:26.920Z,88.69
2023-05-01T22:06:33.396Z,86.89
2023-05-01T22:11:42.408Z,87.66
2023-05-01T22:16:49.532Z,85.92
2023-05-01T22:21:54.808Z,84.96
2023-05-01T22:27:02.821Z,85.14
2023-05-01T22:32:08.679Z,86.82
2023-05-01T22:37:14.333Z,87.72
2023-05-01T22:42:22.665Z,88.82
2023-05-01T22:47:30.318Z,88.26
2023-05-01T22:52:35.666Z,89.75
2023-05-01T22:57:44.509Z,89.63
2023-05-01T23:02:49.818Z,90.60
2023-05-01T23:07:56.524Z,89.62
2023-05-01T23:13:07.227Z,87.44
2023-05-01T23:18:15.928Z,87.19
2023-05-01T23:23:23.318Z,88.79
2023-05-01T23:28:32.324Z,88.46
2023-05-01T23:33:39.635Z,91.94
2023-05-01T23:38:44.989Z,92.14
2023-05-01T23:43:53.258Z,92.46
2023-05-01T23:48:58.996Z,91.40
2023-05-01T23:54:07.063Z,91.97
2023-05-01T23:59:15.026Z,92.17
